This is the latest recevied weather packets stored in our database for station/object KG5APU. If no packets are shown the sender has not sent any weather packets the latest 10 day(s).
| Time | Temp. | Humidity | Pressure | Rain* | Wind** | Luminosity | Snow |
|---|---|---|---|---|---|---|---|
| 1788099813 | 30.56° C | 66% | 1018 hPa | 0 mm | - | 265 W/m² | - |
| 1788099208 | 30° C | 69% | 1018 hPa | 0 mm | - | 247 W/m² | - |
| 1788098604 | 29.44° C | 70% | 1017.9 hPa | 0 mm | - | 212 W/m² | - |
| 1788098000 | 28.89° C | 71% | 1017.8 hPa | 0 mm | - | 162 W/m² | - |
| 1788097396 | 28.89° C | 71% | 1017.9 hPa | 0 mm | - | 71 W/m² | - |
| 1788096793 | 28.89° C | 72% | 1017.9 hPa | 0 mm | - | 135 W/m² | - |
| 1788096190 | 28.33° C | 72% | 1017.7 hPa | 0 mm | - | 112 W/m² | - |
| 1788095590 | 27.78° C | 72% | 1017.6 hPa | 0 mm | - | 91 W/m² | - |
| 1788094985 | 27.78° C | 72% | 1017.5 hPa | 0 mm | - | 72 W/m² | - |
| 1788094380 | 27.22° C | 72% | 1017.3 hPa | 0 mm | - | 55 W/m² | - |
| 1788093779 | 27.22° C | 74% | 1017.3 hPa | 0 mm | - | 40 W/m² | - |
| 1788093177 | 26.67° C | 76% | 1017.2 hPa | 0 mm | - | 30 W/m² | - |
| 1788092575 | 26.11° C | 76% | 1017 hPa | 0 mm | - | 20 W/m² | - |
| 1788091975 | 26.11° C | 76% | 1016.9 hPa | 0 mm | - | 12 W/m² | - |
| 1788091373 | 26.11° C | 76% | 1016.8 hPa | 0 mm | - | 5 W/m² | - |
| 1788090771 | 26.11° C | 76% | 1016.6 hPa | 0 mm | - | 1 W/m² | - |
| 1788090168 | 26.11° C | 76% | 1016.3 hPa | 0 mm | - | 0 W/m² | - |
| 1788089563 | 26.11° C | 74% | 1016.4 hPa | 0 mm | - | 0 W/m² | - |
| 1788088961 | 26.11° C | 73% | 1016.2 hPa | 0 mm | - | 0 W/m² | - |
| 1788088358 | 26.67° C | 71% | 1016.4 hPa | 0 mm | - | 0 W/m² | - |
| 1788087755 | 26.67° C | 70% | 1016.2 hPa | 0 mm | - | 0 W/m² | - |
| 1788087150 | 26.67° C | 69% | 1016 hPa | 0 mm | - | 0 W/m² | - |
| 1788086549 | 26.67° C | 66% | 1015.9 hPa | 0 mm | - | 0 W/m² | - |
| 1788085944 | 26.67° C | 65% | 1015.8 hPa | 0 mm | - | 0 W/m² | - |
| 1788085343 | 26.67° C | 64% | 1015.9 hPa | 0 mm | - | 0 W/m² | - |
* Rain latest hour (hover to see other rain measurements)
** Current wind speed in m/s (hover to see current wind gust speed)